createdAt,value
2024-04-06T00:02:05.638Z,12.30
2024-04-06T00:04:37.349Z,12.37
2024-04-06T00:07:05.642Z,12.42
2024-04-06T00:09:33.673Z,12.47
2024-04-06T00:12:02.244Z,12.50
2024-04-06T00:14:32.871Z,12.53
2024-04-06T00:17:01.058Z,12.54
2024-04-06T00:19:29.151Z,12.58
2024-04-06T00:21:57.828Z,12.61
2024-04-06T00:24:25.973Z,12.59
2024-04-06T00:26:54.157Z,12.63
2024-04-06T00:29:22.300Z,12.61
2024-04-06T00:31:50.353Z,12.50
2024-04-06T00:34:18.406Z,12.35
2024-04-06T00:36:46.445Z,12.18
2024-04-06T00:39:14.727Z,12.02
2024-04-06T00:41:43.015Z,11.93
2024-04-06T00:44:11.201Z,11.89
2024-04-06T00:46:39.437Z,11.80
2024-04-06T00:49:09.322Z,11.72
2024-04-06T00:51:37.375Z,11.67
2024-04-06T00:54:05.739Z,11.68
2024-04-06T00:56:34.262Z,11.70
2024-04-06T00:59:03.391Z,11.75
2024-04-06T01:01:31.933Z,11.78
2024-04-06T01:04:00.268Z,11.76
2024-04-06T01:06:28.800Z,11.80
2024-04-06T01:08:57.678Z,11.80
2024-04-06T01:11:26.035Z,11.78
2024-04-06T01:13:54.074Z,11.76
2024-04-06T01:16:22.173Z,11.80
2024-04-06T01:18:50.338Z,11.83
2024-04-06T01:21:20.791Z,11.89
2024-04-06T01:23:54.095Z,11.89
2024-04-06T01:26:23.311Z,11.91
2024-04-06T01:28:51.384Z,11.89
2024-04-06T01:31:19.433Z,11.87
2024-04-06T01:33:51.646Z,11.83
2024-04-06T01:36:19.835Z,11.80
2024-04-06T01:38:47.732Z,11.85
2024-04-06T01:41:16.129Z,11.85
2024-04-06T01:43:44.575Z,11.80
2024-04-06T01:46:12.716Z,11.73
2024-04-06T01:48:41.082Z,11.68
2024-04-06T01:51:09.481Z,11.53
2024-04-06T01:53:37.528Z,11.27
2024-04-06T01:56:06.094Z,11.18
2024-04-06T01:58:34.261Z,10.98
2024-04-06T02:01:02.554Z,11.06
2024-04-06T02:03:31.348Z,11.07
2024-04-06T02:05:59.879Z,11.09
2024-04-06T02:08:28.380Z,10.90
2024-04-06T02:10:56.552Z,10.76
2024-04-06T02:13:24.870Z,10.75
2024-04-06T02:15:52.975Z,10.84
2024-04-06T02:18:21.412Z,10.96
2024-04-06T02:20:50.045Z,11.13
2024-04-06T02:23:18.057Z,11.23
2024-04-06T02:25:46.253Z,11.30
2024-04-06T02:28:14.850Z,11.36
2024-04-06T02:30:42.867Z,11.39
2024-04-06T02:33:10.943Z,11.40
2024-04-06T02:35:39.291Z,11.45
2024-04-06T02:38:07.345Z,11.46
2024-04-06T02:40:35.354Z,11.45
2024-04-06T02:43:03.578Z,11.46
2024-04-06T02:45:31.850Z,11.46
2024-04-06T02:47:59.989Z,11.46
2024-04-06T02:50:28.197Z,11.47
2024-04-06T02:52:56.602Z,11.47
2024-04-06T02:55:24.890Z,11.46
2024-04-06T02:57:53.528Z,11.46
2024-04-06T03:00:21.695Z,11.48
2024-04-06T03:02:49.836Z,11.50
2024-04-06T03:05:19.708Z,11.45
2024-04-06T03:07:48.223Z,11.43
2024-04-06T03:10:16.497Z,11.43
2024-04-06T03:12:44.823Z,11.46
2024-04-06T03:15:13.013Z,11.48
2024-04-06T03:17:41.132Z,11.46
2024-04-06T03:20:11.382Z,11.42
2024-04-06T03:22:39.410Z,11.36
2024-04-06T03:25:07.812Z,11.36
2024-04-06T03:27:36.141Z,11.35
2024-04-06T03:30:04.755Z,11.28
2024-04-06T03:32:32.859Z,11.23
2024-04-06T03:35:01.135Z,11.18
2024-04-06T03:37:29.256Z,11.12
2024-04-06T03:39:58.167Z,11.10
2024-04-06T03:42:26.679Z,11.01
2024-04-06T03:44:54.862Z,11.01
2024-04-06T03:47:23.087Z,11.01
2024-04-06T03:49:51.175Z,10.98
2024-04-06T03:52:19.499Z,10.92
2024-04-06T03:54:47.634Z,10.85
2024-04-06T03:57:16.186Z,10.78
2024-04-06T03:59:44.639Z,10.73
2024-04-06T04:02:13.108Z,10.64
2024-04-06T04:04:41.275Z,10.59
2024-04-06T04:07:09.564Z,10.51
2024-04-06T04:09:38.965Z,10.52
2024-04-06T04:12:07.150Z,10.49
2024-04-06T04:14:35.285Z,10.53
2024-04-06T04:17:03.412Z,10.57
2024-04-06T04:19:31.486Z,10.61
2024-04-06T04:21:59.650Z,10.64
2024-04-06T04:24:27.843Z,10.65
2024-04-06T04:26:56.146Z,10.71
2024-04-06T04:29:24.309Z,10.68
2024-04-06T04:31:52.631Z,10.67
2024-04-06T04:34:20.786Z,10.64
2024-04-06T04:36:49.068Z,10.68
2024-04-06T04:39:17.589Z,10.76
2024-04-06T04:41:45.701Z,10.86
2024-04-06T04:44:30.177Z,10.95
2024-04-06T04:47:02.171Z,11.11
2024-04-06T04:49:30.536Z,11.22
2024-04-06T04:51:58.599Z,11.33
2024-04-06T04:54:26.910Z,11.39
2024-04-06T04:56:55.269Z,11.46
2024-04-06T04:59:23.617Z,11.58
2024-04-06T05:01:51.790Z,11.54
2024-04-06T05:04:20.071Z,11.57
2024-04-06T05:06:48.205Z,11.70
2024-04-06T05:09:16.837Z,11.69
2024-04-06T05:11:45.107Z,11.64
2024-04-06T05:14:13.283Z,11.65
2024-04-06T05:16:41.586Z,11.73
2024-04-06T05:19:10.743Z,11.57
2024-04-06T05:21:38.898Z,11.66
2024-04-06T05:24:07.306Z,11.75
2024-04-06T05:26:35.530Z,11.91
2024-04-06T05:29:04.142Z,11.99
2024-04-06T05:31:32.260Z,12.00
2024-04-06T05:34:00.561Z,12.02
2024-04-06T05:36:28.775Z,12.20
2024-04-06T05:38:56.993Z,12.34
2024-04-06T05:41:25.352Z,12.43
2024-04-06T05:43:55.106Z,12.62
2024-04-06T05:46:23.307Z,12.76
2024-04-06T05:48:51.526Z,12.90
2024-04-06T05:51:19.896Z,13.06
2024-04-06T05:53:48.135Z,13.15
2024-04-06T05:56:16.275Z,13.28
2024-04-06T05:58:44.420Z,13.35
2024-04-06T06:01:12.659Z,13.49
2024-04-06T06:03:40.884Z,13.64
2024-04-06T06:06:09.472Z,13.78
2024-04-06T06:08:39.156Z,13.90
2024-04-06T06:11:07.462Z,13.95
2024-04-06T06:13:35.710Z,13.99
2024-04-06T06:16:04.216Z,14.10
2024-04-06T06:18:32.574Z,14.19
2024-04-06T06:21:06.210Z,14.26
2024-04-06T06:23:34.447Z,14.34
2024-04-06T06:26:02.490Z,14.49
2024-04-06T06:28:30.788Z,14.57
2024-04-06T06:31:01.203Z,14.73
2024-04-06T06:33:29.535Z,14.85
2024-04-06T06:38:28.982Z,14.98
2024-04-06T06:40:57.624Z,15.05
2024-04-06T06:43:26.201Z,15.18
2024-04-06T06:45:54.253Z,15.29
2024-04-06T06:48:22.524Z,15.38
2024-04-06T06:50:50.615Z,15.47
2024-04-06T06:53:18.931Z,15.53
2024-04-06T06:55:47.123Z,15.59
2024-04-06T06:58:15.375Z,15.69
2024-04-06T07:00:47.711Z,15.70
2024-04-06T07:03:15.883Z,15.78
2024-04-06T07:05:44.258Z,15.84
2024-04-06T07:08:12.463Z,15.85
2024-04-06T07:10:41.472Z,15.90
2024-04-06T07:13:10.002Z,15.95
2024-04-06T07:15:38.477Z,15.97
2024-04-06T07:18:06.837Z,16.00
2024-04-06T07:20:35.076Z,16.02
2024-04-06T07:23:03.238Z,16.08
2024-04-06T07:25:31.415Z,16.05
2024-04-06T07:27:59.468Z,16.04
2024-04-06T07:30:27.544Z,16.09
2024-04-06T07:32:57.535Z,16.14
2024-04-06T07:35:25.935Z,16.25
2024-04-06T07:37:54.105Z,16.27
2024-04-06T07:40:25.428Z,16.33
2024-04-06T07:42:53.991Z,16.38
2024-04-06T07:45:22.389Z,16.45
2024-04-06T07:47:50.402Z,16.46
2024-04-06T07:50:18.449Z,16.54
2024-04-06T07:52:46.837Z,16.63
2024-04-06T07:55:15.173Z,16.71
2024-04-06T07:57:47.080Z,16.74
2024-04-06T08:00:15.939Z,16.80
2024-04-06T08:02:44.727Z,16.82
2024-04-06T08:05:13.600Z,16.79
2024-04-06T08:07:41.813Z,16.88
2024-04-06T08:10:21.684Z,16.93
2024-04-06T08:12:56.885Z,17.00
2024-04-06T08:15:27.502Z,17.00
2024-04-06T08:17:57.630Z,17.10
2024-04-06T08:20:25.897Z,17.17
2024-04-06T08:22:54.097Z,17.33
2024-04-06T08:25:22.403Z,17.47
2024-04-06T08:27:50.568Z,17.56
2024-04-06T08:30:19.071Z,17.60
2024-04-06T08:32:58.735Z,17.68
2024-04-06T08:35:27.661Z,17.68
2024-04-06T08:37:55.897Z,17.73
2024-04-06T08:40:24.640Z,17.72
2024-04-06T08:42:57.771Z,17.76
2024-04-06T08:45:29.938Z,17.84
2024-04-06T08:47:59.009Z,17.85
2024-04-06T08:50:27.244Z,17.78
2024-04-06T08:52:55.491Z,17.79
2024-04-06T08:55:23.808Z,17.81
2024-04-06T08:57:52.839Z,17.82
2024-04-06T09:00:28.559Z,17.82
2024-04-06T09:02:56.927Z,17.86
2024-04-06T09:05:25.324Z,17.95
2024-04-06T09:07:53.623Z,18.00
2024-04-06T09:10:26.459Z,18.05
2024-04-06T09:12:54.748Z,18.07
2024-04-06T09:15:22.793Z,18.25
2024-04-06T09:17:51.005Z,18.39
2024-04-06T09:20:19.258Z,18.56
2024-04-06T09:22:47.503Z,18.68
2024-04-06T09:25:15.653Z,18.81
2024-04-06T09:27:45.563Z,18.88
2024-04-06T09:30:13.860Z,18.94
2024-04-06T09:32:43.501Z,19.02
2024-04-06T09:35:11.959Z,19.08
2024-04-06T09:37:42.557Z,19.09
2024-04-06T09:40:10.878Z,19.13
2024-04-06T09:42:39.714Z,19.13
2024-04-06T09:45:08.615Z,19.17
2024-04-06T09:47:39.010Z,19.18
2024-04-06T09:50:07.810Z,19.19
2024-04-06T09:52:36.643Z,19.23
2024-04-06T09:55:06.361Z,19.30
2024-04-06T09:57:34.708Z,19.36
2024-04-06T10:00:06.059Z,19.42
2024-04-06T10:02:35.715Z,19.51
2024-04-06T10:05:07.803Z,19.58
2024-04-06T10:07:37.537Z,19.62
2024-04-06T10:10:08.085Z,19.62
2024-04-06T10:12:49.286Z,19.72
2024-04-06T10:15:20.237Z,19.80
2024-04-06T10:17:50.236Z,19.83
2024-04-06T10:20:25.347Z,19.87
2024-04-06T10:23:00.916Z,19.89
2024-04-06T10:25:38.655Z,19.97
2024-04-06T10:28:09.638Z,20.07
2024-04-06T10:30:40.681Z,20.26
2024-04-06T10:33:09.741Z,20.44
2024-04-06T10:35:37.883Z,20.63
2024-04-06T10:38:07.791Z,20.84
2024-04-06T10:40:39.835Z,20.99
2024-04-06T10:46:41.655Z,20.95
2024-04-06T10:49:14.497Z,20.99
2024-04-06T10:51:42.691Z,21.00
2024-04-06T10:54:11.334Z,21.02
2024-04-06T10:56:39.614Z,21.03
2024-04-06T10:59:08.032Z,21.01
2024-04-06T11:01:36.407Z,20.95
2024-04-06T11:04:05.221Z,20.83
2024-04-06T11:06:36.340Z,20.72
2024-04-06T11:09:11.453Z,20.67
2024-04-06T11:11:39.798Z,20.57
2024-04-06T11:14:11.935Z,20.57
2024-04-06T11:16:43.046Z,20.58
2024-04-06T11:19:14.479Z,20.58
2024-04-06T11:21:42.842Z,20.60
2024-04-06T11:24:11.063Z,20.63
2024-04-06T11:26:39.384Z,20.69
2024-04-06T11:29:08.384Z,20.79
2024-04-06T11:31:36.652Z,20.93
2024-04-06T11:34:04.912Z,21.04
2024-04-06T11:36:35.383Z,21.12
2024-04-06T11:39:04.141Z,21.19
2024-04-06T11:41:32.273Z,21.32
2024-04-06T11:44:00.902Z,21.49
2024-04-06T11:46:29.239Z,21.54
2024-04-06T11:48:57.416Z,21.60
2024-04-06T11:51:25.893Z,21.62
2024-04-06T11:53:54.095Z,21.63
2024-04-06T11:56:22.454Z,21.65
2024-04-06T11:58:51.586Z,21.59
2024-04-06T12:01:19.590Z,21.53
2024-04-06T12:03:47.724Z,21.43
2024-04-06T12:06:19.011Z,21.31
2024-04-06T12:08:47.477Z,21.27
2024-04-06T12:11:15.591Z,21.06
2024-04-06T12:13:43.933Z,20.92
2024-04-06T12:16:12.397Z,20.81
2024-04-06T12:18:40.619Z,20.69
2024-04-06T12:21:09.044Z,20.58
2024-04-06T12:23:37.497Z,20.51
2024-04-06T12:26:05.710Z,20.37
2024-04-06T12:28:33.989Z,20.13
2024-04-06T12:31:02.295Z,20.09
2024-04-06T12:33:30.547Z,20.07
2024-04-06T12:35:59.450Z,20.01
2024-04-06T12:38:27.898Z,20.03
2024-04-06T12:40:56.638Z,19.98
2024-04-06T12:43:24.842Z,19.96
2024-04-06T12:45:52.906Z,19.97
2024-04-06T12:48:24.355Z,19.94
2024-04-06T12:50:52.641Z,19.92
2024-04-06T12:53:21.090Z,19.89
2024-04-06T12:55:50.273Z,19.79
2024-04-06T12:58:18.737Z,19.72
2024-04-06T13:00:47.034Z,19.67
2024-04-06T13:03:15.270Z,19.62
2024-04-06T13:05:43.588Z,19.55
2024-04-06T13:08:11.641Z,19.48
2024-04-06T13:10:39.691Z,19.38
2024-04-06T13:13:08.160Z,19.34
2024-04-06T13:15:36.458Z,19.23
2024-04-06T13:18:05.260Z,19.20
2024-04-06T13:20:34.759Z,19.14
2024-04-06T13:23:02.704Z,19.01
2024-04-06T13:25:33.087Z,18.92
2024-04-06T13:28:01.431Z,18.61
2024-04-06T13:30:30.630Z,17.80
2024-04-06T13:32:58.720Z,17.02
2024-04-06T13:35:26.902Z,15.97
2024-04-06T13:37:55.095Z,15.35
2024-04-06T13:40:23.347Z,14.91
2024-04-06T13:42:51.581Z,14.53
2024-04-06T13:45:19.974Z,14.11
2024-04-06T13:47:48.679Z,13.97
2024-04-06T13:50:17.149Z,13.92
2024-04-06T13:52:45.617Z,13.86
2024-04-06T13:55:13.988Z,13.65
2024-04-06T13:57:49.346Z,13.64
2024-04-06T14:00:17.702Z,13.56
2024-04-06T14:02:46.028Z,13.39
2024-04-06T14:05:14.506Z,13.37
2024-04-06T14:07:43.683Z,13.40
2024-04-06T14:10:12.103Z,13.35
2024-04-06T14:12:40.277Z,13.42
2024-04-06T14:15:13.657Z,13.38
2024-04-06T14:17:42.298Z,13.40
2024-04-06T14:20:11.759Z,13.45
2024-04-06T14:22:40.548Z,13.51
2024-04-06T14:25:08.627Z,13.54
2024-04-06T14:27:37.069Z,13.57
2024-04-06T14:30:29.639Z,13.67
2024-04-06T14:32:58.720Z,13.76
2024-04-06T14:35:27.093Z,13.94
2024-04-06T14:37:55.250Z,14.07
2024-04-06T14:40:25.571Z,14.23
2024-04-06T14:42:54.643Z,14.37
2024-04-06T14:45:23.141Z,14.38
2024-04-06T14:47:51.409Z,14.41
2024-04-06T14:50:19.858Z,14.46
2024-04-06T14:52:48.929Z,14.47
2024-04-06T14:55:19.048Z,14.38
2024-04-06T14:57:47.628Z,14.49
2024-04-06T15:00:17.052Z,14.47
2024-04-06T15:02:45.446Z,14.55
2024-04-06T15:05:13.716Z,14.68
2024-04-06T15:07:41.969Z,14.80
2024-04-06T15:10:10.024Z,14.91
2024-04-06T15:12:38.688Z,14.89
2024-04-06T15:15:07.265Z,14.98
2024-04-06T15:17:35.373Z,15.06
2024-04-06T15:20:11.366Z,15.22
2024-04-06T15:22:42.654Z,15.24
2024-04-06T15:25:10.711Z,15.29
2024-04-06T15:27:40.688Z,15.29
2024-04-06T15:30:09.089Z,15.30
2024-04-06T15:32:39.522Z,15.25
2024-04-06T15:35:09.420Z,15.19
2024-04-06T15:37:38.257Z,15.16
2024-04-06T15:40:07.753Z,15.15
2024-04-06T15:42:36.141Z,15.13
2024-04-06T15:45:04.949Z,15.03
2024-04-06T15:47:33.135Z,15.02
2024-04-06T15:50:01.282Z,14.91
2024-04-06T15:52:29.857Z,14.80
2024-04-06T15:54:59.620Z,14.76
2024-04-06T15:57:28.182Z,14.72
2024-04-06T15:59:56.304Z,14.67
2024-04-06T16:02:24.604Z,14.62
2024-04-06T16:04:52.908Z,14.69
2024-04-06T16:07:20.794Z,14.71
2024-04-06T16:09:49.012Z,14.78
2024-04-06T16:12:18.024Z,14.80
2024-04-06T16:14:46.078Z,14.84
2024-04-06T16:17:14.334Z,14.86
2024-04-06T16:19:42.507Z,14.87
2024-04-06T16:22:10.753Z,14.92
2024-04-06T16:24:39.393Z,14.87
2024-04-06T16:27:07.668Z,14.83
2024-04-06T16:29:35.932Z,14.72
2024-04-06T16:32:05.398Z,14.75
2024-04-06T16:34:36.458Z,14.66
2024-04-06T16:37:05.510Z,14.55
2024-04-06T16:39:34.027Z,14.46
2024-04-06T16:42:02.397Z,14.35
2024-04-06T16:44:30.528Z,14.35
2024-04-06T16:46:58.791Z,14.27
2024-04-06T16:49:26.971Z,14.28
2024-04-06T16:51:55.650Z,14.22
2024-04-06T16:54:23.794Z,14.16
2024-04-06T16:56:52.063Z,14.16
2024-04-06T16:59:20.232Z,14.15
2024-04-06T17:01:48.253Z,14.11
2024-04-06T17:04:16.396Z,14.13
2024-04-06T17:06:44.622Z,14.13
2024-04-06T17:09:12.635Z,14.12
2024-04-06T17:11:41.126Z,14.10
2024-04-06T17:14:09.397Z,14.08
2024-04-06T17:16:37.549Z,14.09
2024-04-06T17:19:05.934Z,14.09
2024-04-06T17:21:34.174Z,13.98
2024-04-06T17:24:02.534Z,14.02
2024-04-06T17:26:30.769Z,14.02
2024-04-06T17:28:58.752Z,13.96
2024-04-06T17:31:27.178Z,13.93
2024-04-06T17:33:55.547Z,13.99
2024-04-06T17:36:23.714Z,13.95
2024-04-06T17:38:52.422Z,13.93
2024-04-06T17:41:21.942Z,13.96
2024-04-06T17:43:50.508Z,13.94
2024-04-06T17:46:19.008Z,13.90
2024-04-06T17:48:47.046Z,13.91
2024-04-06T17:51:15.281Z,13.90
2024-04-06T17:53:43.440Z,13.90
2024-04-06T17:56:11.663Z,14.03
2024-04-06T17:58:39.700Z,14.02
2024-04-06T18:01:08.091Z,14.06
2024-04-06T18:03:36.318Z,14.08
2024-04-06T18:06:05.762Z,14.05
2024-04-06T18:08:34.089Z,14.11
2024-04-06T18:11:03.167Z,14.13
2024-04-06T18:13:31.477Z,14.11
2024-04-06T18:15:59.868Z,14.05
2024-04-06T18:18:28.129Z,14.04
2024-04-06T18:20:56.207Z,14.05
2024-04-06T18:23:25.120Z,14.04
2024-04-06T18:25:53.235Z,14.01
2024-04-06T18:28:21.536Z,13.93
2024-04-06T18:30:49.725Z,13.85
2024-04-06T18:33:18.055Z,13.86
2024-04-06T18:35:46.096Z,13.88
2024-04-06T18:38:15.111Z,13.88
2024-04-06T18:40:45.351Z,13.87
2024-04-06T18:43:13.526Z,13.77
2024-04-06T18:45:45.463Z,13.78
2024-04-06T18:48:14.700Z,13.76
2024-04-06T18:50:43.046Z,13.74
2024-04-06T18:53:12.263Z,13.73
2024-04-06T18:55:40.715Z,13.68
2024-04-06T18:58:08.713Z,13.69
2024-04-06T19:00:37.070Z,13.67
2024-04-06T19:03:05.602Z,13.63
2024-04-06T19:05:34.004Z,13.55
2024-04-06T19:08:02.052Z,13.51
2024-04-06T19:10:31.618Z,13.45
2024-04-06T19:13:00.875Z,13.35
2024-04-06T19:15:30.045Z,13.31
2024-04-06T19:18:00.243Z,13.23
2024-04-06T19:20:32.667Z,13.21
2024-04-06T19:23:00.925Z,13.24
2024-04-06T19:25:29.052Z,13.24
2024-04-06T19:27:57.156Z,13.20
2024-04-06T19:30:25.258Z,13.21
2024-04-06T19:32:54.459Z,13.23
2024-04-06T19:35:22.810Z,13.22
2024-04-06T19:37:51.081Z,13.21
2024-04-06T19:40:19.746Z,13.21
2024-04-06T19:42:47.936Z,13.20
2024-04-06T19:45:16.421Z,13.15
2024-04-06T19:47:44.895Z,13.18
2024-04-06T19:50:13.121Z,13.18
2024-04-06T19:52:41.268Z,13.16
2024-04-06T19:55:11.812Z,13.05
2024-04-06T19:57:39.918Z,13.02
2024-04-06T20:00:10.014Z,13.07
2024-04-06T20:02:41.434Z,13.10
2024-04-06T20:05:09.592Z,13.09
2024-04-06T20:07:37.704Z,13.16
2024-04-06T20:10:06.702Z,13.19
2024-04-06T20:12:34.906Z,13.04
2024-04-06T20:15:03.073Z,13.10
2024-04-06T20:17:31.222Z,12.95
2024-04-06T20:19:59.258Z,12.85
2024-04-06T20:22:46.044Z,12.69
2024-04-06T20:25:32.647Z,12.75
2024-04-06T20:28:00.866Z,12.69
2024-04-06T20:30:29.047Z,12.82
2024-04-06T20:32:57.248Z,12.92
2024-04-06T20:35:25.473Z,12.99
2024-04-06T20:37:53.741Z,13.04
2024-04-06T20:40:22.032Z,13.05
2024-04-06T20:42:50.313Z,13.00
2024-04-06T20:45:18.343Z,13.04
2024-04-06T20:47:46.446Z,13.04
2024-04-06T20:50:14.734Z,13.07
2024-04-06T20:52:42.814Z,13.05
2024-04-06T20:55:11.643Z,13.05
2024-04-06T20:57:40.035Z,12.85
2024-04-06T21:00:11.680Z,12.70
2024-04-06T21:02:40.307Z,12.66
2024-04-06T21:05:08.363Z,12.64
2024-04-06T21:07:38.073Z,12.52
2024-04-06T21:10:06.710Z,12.65
2024-04-06T21:12:34.991Z,12.69
2024-04-06T21:15:16.667Z,12.75
2024-04-06T21:17:44.907Z,12.79
2024-04-06T21:20:13.030Z,12.75
2024-04-06T21:22:41.324Z,12.77
2024-04-06T21:25:10.996Z,12.76
2024-04-06T21:27:44.276Z,12.72
2024-04-06T21:30:13.928Z,12.67
2024-04-06T21:32:43.060Z,12.58
2024-04-06T21:35:11.424Z,12.56
2024-04-06T21:37:39.914Z,12.52
2024-04-06T21:55:47.457Z,12.45
2024-04-06T21:58:17.397Z,12.44
2024-04-06T22:00:45.924Z,12.43
2024-04-06T22:03:14.092Z,12.42
2024-04-06T22:05:42.258Z,12.41
2024-04-06T22:08:10.631Z,12.35
2024-04-06T22:10:38.983Z,12.36
2024-04-06T22:13:07.428Z,12.37
2024-04-06T22:15:35.488Z,12.39
2024-04-06T22:18:04.085Z,12.43
2024-04-06T22:20:32.176Z,12.45
2024-04-06T22:23:00.662Z,12.51
2024-04-06T22:25:29.440Z,12.56
2024-04-06T22:27:57.747Z,12.59
2024-04-06T22:30:26.092Z,12.64
2024-04-06T22:32:54.209Z,12.67
2024-04-06T22:35:22.589Z,12.72
2024-04-06T22:37:51.027Z,12.69
2024-04-06T22:40:20.835Z,12.68
2024-04-06T22:42:49.135Z,12.63
2024-04-06T22:45:17.462Z,12.54
2024-04-06T22:47:45.616Z,12.51
2024-04-06T22:50:13.804Z,12.56
2024-04-06T22:52:42.260Z,12.60
2024-04-06T22:55:11.477Z,12.63
2024-04-06T22:57:39.583Z,12.61
2024-04-06T23:00:12.722Z,12.64
2024-04-06T23:02:41.199Z,12.56
2024-04-06T23:05:09.425Z,12.59
2024-04-06T23:07:37.736Z,12.62
2024-04-06T23:10:08.785Z,12.54
2024-04-06T23:12:37.085Z,12.52
2024-04-06T23:15:05.720Z,12.55
2024-04-06T23:17:33.922Z,12.52
2024-04-06T23:20:02.175Z,12.51
2024-04-06T23:22:30.235Z,12.45
2024-04-06T23:24:58.394Z,12.43
2024-04-06T23:27:26.483Z,12.41
2024-04-06T23:29:54.716Z,12.29
2024-04-06T23:32:22.837Z,12.33
2024-04-06T23:34:51.119Z,12.31
2024-04-06T23:37:19.281Z,12.33
2024-04-06T23:39:47.647Z,12.30
2024-04-06T23:42:17.169Z,12.27
2024-04-06T23:44:45.283Z,12.21
2024-04-06T23:47:13.393Z,12.17
2024-04-06T23:49:41.512Z,12.14
2024-04-06T23:52:09.760Z,12.08
2024-04-06T23:54:37.803Z,12.14
2024-04-06T23:57:07.447Z,12.17
2024-04-06T23:59:37.220Z,12.00
